Time,TemperatureF,DewpointF,PressureIn,WindDirection,WindDirectionDegrees,WindSpeedMPH,WindSpeedGustMPH,Humidity,HourlyPrecipIn,Conditions,Clouds,dailyrainin,SoftwareType,DateUTC
2013-03-21 02:23:00,-3.0,-99.9,-100.00,ENE,74,0.0,0.0,-999,-99.99,,,-99.99,,2013-03-21 10:23:00,
2013-03-21 03:23:00,-5.0,-99.9,-100.00,ENE,74,0.0,0.0,-999,-99.99,,,-99.99,,2013-03-21 11:23:00,
2013-03-21 04:22:00,-4.0,-99.9,-100.00,ENE,74,0.0,0.0,-999,-99.99,,,-99.99,,2013-03-21 12:22:00,
2013-03-21 06:12:00,-6.0,-99.9,-100.00,ENE,74,0.0,0.0,-999,-99.99,,,-99.99,,2013-03-21 14:12:00,
2013-03-21 06:22:00,-6.0,-99.9,-100.00,ENE,74,0.0,0.0,-999,-99.99,,,-99.99,,2013-03-21 14:22:00,
2013-03-21 07:13:00,-8.0,-99.9,-100.00,ENE,74,0.0,0.0,-999,-99.99,,,-99.99,,2013-03-21 15:13:00,
2013-03-21 07:22:00,-8.0,-99.9,-100.00,ENE,74,0.0,0.0,-999,-99.99,,,-99.99,,2013-03-21 15:22:00,
2013-03-21 08:23:00,-9.0,-99.9,-100.00,ENE,74,0.0,0.0,-999,-99.99,,,-99.99,,2013-03-21 16:23:00,
2013-03-21 09:23:00,-8.0,-99.9,-100.00,ENE,74,0.0,0.0,-999,-99.99,,,-99.99,,2013-03-21 17:23:00,
2013-03-21 12:23:00,21.0,-99.9,-100.00,South,182,0.0,0.0,-999,-99.99,,,-99.99,,2013-03-21 20:23:00,
2013-03-21 12:33:00,21.0,-99.9,-100.00,South,182,0.0,0.0,-999,-99.99,,,-99.99,,2013-03-21 20:33:00,
2013-03-21 12:43:00,21.0,-99.9,-100.00,South,182,0.0,0.0,-999,-99.99,,,-99.99,,2013-03-21 20:43:00,
2013-03-21 12:53:00,21.0,-99.9,-100.00,South,182,0.0,0.0,-999,-99.99,,,-99.99,,2013-03-21 20:53:00,
2013-03-21 14:23:00,26.0,-99.9,-100.00,SW,224,0.0,5.0,-999,-99.99,,,-99.99,,2013-03-21 22:23:00,
2013-03-21 14:34:00,26.0,-99.9,-100.00,SW,224,0.0,5.0,-999,-99.99,,,-99.99,,2013-03-21 22:34:00,
2013-03-21 14:43:00,26.0,-99.9,-100.00,SW,224,0.0,5.0,-999,-99.99,,,-99.99,,2013-03-21 22:43:00,
2013-03-21 14:53:00,26.0,-99.9,-100.00,SW,224,0.0,5.0,-999,-99.99,,,-99.99,,2013-03-21 22:53:00,
2013-03-21 15:22:00,27.0,-99.9,-100.00,WSW,252,0.0,8.0,-999,-99.99,,,-99.99,,2013-03-21 23:22:00,
2013-03-21 15:33:00,27.0,-99.9,-100.00,WSW,252,0.0,8.0,-999,-99.99,,,-99.99,,2013-03-21 23:33:00,
2013-03-21 15:43:00,27.0,-99.9,-100.00,WSW,252,0.0,8.0,-999,-99.99,,,-99.99,,2013-03-21 23:43:00,
2013-03-21 15:53:00,27.0,-99.9,-100.00,WSW,252,0.0,8.0,-999,-99.99,,,-99.99,,2013-03-21 23:53:00,
2013-03-21 18:23:00,27.0,-99.9,-100.00,NNW,340,0.0,4.0,-999,-99.99,,,-99.99,,2013-03-22 02:23:00,
2013-03-21 18:32:00,27.0,-99.9,-100.00,NNW,340,0.0,4.0,-999,-99.99,,,-99.99,,2013-03-22 02:32:00,
2013-03-21 18:43:00,27.0,-99.9,-100.00,NNW,340,0.0,4.0,-999,-99.99,,,-99.99,,2013-03-22 02:43:00,
2013-03-21 18:53:00,27.0,-99.9,-100.00,NNW,340,0.0,4.0,-999,-99.99,,,-99.99,,2013-03-22 02:53:00,
2013-03-21 19:22:00,26.0,-99.9,-100.00,NNW,327,0.0,0.0,-999,-99.99,,,-99.99,,2013-03-22 03:22:00,
2013-03-21 19:33:00,26.0,-99.9,-100.00,NNW,327,0.0,0.0,-999,-99.99,,,-99.99,,2013-03-22 03:33:00,
2013-03-21 19:43:00,26.0,-99.9,-100.00,NNW,327,0.0,0.0,-999,-99.99,,,-99.99,,2013-03-22 03:43:00,
2013-03-21 19:53:00,26.0,-99.9,-100.00,NNW,327,0.0,0.0,-999,-99.99,,,-99.99,,2013-03-22 03:53:00,
2013-03-21 20:23:00,25.0,-99.9,-100.00,NW,323,0.0,0.0,-999,-99.99,,,-99.99,,2013-03-22 04:23:00,
2013-03-21 20:32:00,25.0,-99.9,-100.00,NW,323,0.0,0.0,-999,-99.99,,,-99.99,,2013-03-22 04:32:00,
2013-03-21 20:43:00,25.0,-99.9,-100.00,NW,323,0.0,0.0,-999,-99.99,,,-99.99,,2013-03-22 04:43:00,
2013-03-21 20:53:00,25.0,-99.9,-100.00,NW,323,0.0,0.0,-999,-99.99,,,-99.99,,2013-03-22 04:53:00,
2013-03-21 22:22:00,21.0,-99.9,-100.00,NW,323,0.0,0.0,-999,-99.99,,,-99.99,,2013-03-22 06:22:00,
2013-03-21 22:32:00,21.0,-99.9,-100.00,NW,323,0.0,0.0,-999,-99.99,,,-99.99,,2013-03-22 06:32:00,
2013-03-21 22:43:00,21.0,-99.9,-100.00,NW,323,0.0,0.0,-999,-99.99,,,-99.99,,2013-03-22 06:43:00,
2013-03-21 22:52:00,21.0,-99.9,-100.00,NW,323,0.0,0.0,-999,-99.99,,,-99.99,,2013-03-22 06:52:00,